Time;durP1;ratioP1;P1;durP2;ratioP2;P2;SDS_P1;SDS_P2;PMS_P1;PMS_P2;Temp;Humidity;BMP_temperature;BMP_pressure;BME280_temperature;BME280_humidity;BME280_pressure;Samples;Min_cycle;Max_cycle;Signal;HPM_P1;HPM_P2
2021/08/06 00:00:49;;;;;;;5.63;4.00;;;;;;;;;;5078085;28;20522;-69
2021/08/06 00:03:17;;;;;;;5.60;3.90;;;;;;;;;;5095047;28;20885;-70
2021/08/06 00:05:45;;;;;;;5.20;4.00;;;;;;;;;;5098174;28;20474;-70
2021/08/06 00:08:13;;;;;;;5.53;4.30;;;;;;;;;;5098578;28;20911;-70
2021/08/06 00:10:41;;;;;;;5.20;4.20;;;;;;;;;;5098372;28;20586;-69
2021/08/06 00:13:09;;;;;;;5.30;3.73;;;;;;;;;;5099436;28;20487;-70
2021/08/06 00:15:38;;;;;;;4.87;4.00;;;;;;;;;;5099660;28;20451;-71
2021/08/06 00:18:06;;;;;;;5.07;4.07;;;;;;;;;;5098096;28;20491;-70
2021/08/06 00:20:35;;;;;;;4.97;4.20;;;;;;;;;;5098799;28;20456;-70
2021/08/06 00:23:04;;;;;;;5.20;4.10;;;;;;;;;;5097908;28;20456;-70
2021/08/06 00:25:32;;;;;;;4.40;3.33;;;;;;;;;;5098234;28;20443;-70
2021/08/06 00:28:01;;;;;;;3.83;3.20;;;;;;;;;;5097861;28;20448;-70
2021/08/06 00:30:29;;;;;;;5.03;3.70;;;;;;;;;;5098264;28;20516;-70
2021/08/06 00:32:58;;;;;;;4.80;3.60;;;;;;;;;;5097645;28;20487;-70
2021/08/06 00:35:26;;;;;;;5.30;4.07;;;;;;;;;;5096989;28;20466;-70
2021/08/06 00:37:54;;;;;;;8.40;3.90;;;;;;;;;;5097974;28;20526;-69
2021/08/06 00:40:23;;;;;;;5.43;4.30;;;;;;;;;;5097930;28;20463;-69
2021/08/06 00:42:51;;;;;;;4.77;4.20;;;;;;;;;;5097759;28;20448;-70
2021/08/06 00:45:19;;;;;;;7.40;3.70;;;;;;;;;;5089329;28;20452;-70
2021/08/06 00:47:47;;;;;;;6.67;3.97;;;;;;;;;;5097562;28;20505;-70
2021/08/06 00:50:17;;;;;;;5.30;4.13;;;;;;;;;;5097451;28;20463;-70
2021/08/06 00:52:45;;;;;;;4.50;3.47;;;;;;;;;;5097204;28;20466;-71
2021/08/06 00:55:13;;;;;;;5.63;4.20;;;;;;;;;;5097821;28;20459;-70
2021/08/06 00:57:42;;;;;;;5.10;4.03;;;;;;;;;;5097533;28;20933;-70
2021/08/06 01:00:17;;;;;;;6.00;5.17;;;;;;;;;;5097452;28;20459;-70
2021/08/06 01:02:49;;;;;;;5.03;3.70;;;;;;;;;;5097311;28;20534;-70
2021/08/06 01:05:19;;;;;;;6.93;4.20;;;;;;;;;;5097611;28;20459;-70
2021/08/06 01:07:50;;;;;;;5.20;4.10;;;;;;;;;;5097261;28;20451;-70
2021/08/06 01:10:19;;;;;;;4.70;3.77;;;;;;;;;;5097143;28;20513;-70
2021/08/06 01:12:49;;;;;;;6.43;4.63;;;;;;;;;;5097258;28;20504;-70
2021/08/06 01:15:17;;;;;;;5.07;4.10;;;;;;;;;;5097389;28;20528;-70
2021/08/06 01:17:47;;;;;;;4.83;3.87;;;;;;;;;;5097139;28;20483;-70
2021/08/06 01:20:15;;;;;;;5.80;4.37;;;;;;;;;;5097233;28;20456;-70
2021/08/06 01:22:50;;;;;;;5.83;4.33;;;;;;;;;;5096704;28;20466;-71
2021/08/06 01:25:44;;;;;;;5.43;4.47;;;;;;;;;;5088479;28;20459;-70
2021/08/06 01:28:13;;;;;;;5.47;4.30;;;;;;;;;;5097435;28;20465;-69
2021/08/06 01:30:42;;;;;;;5.23;4.27;;;;;;;;;;5097007;28;20443;-70
2021/08/06 01:33:09;;;;;;;6.67;4.20;;;;;;;;;;5096941;28;20498;-70
2021/08/06 01:35:37;;;;;;;4.57;3.60;;;;;;;;;;5096801;28;20448;-70
2021/08/06 01:38:06;;;;;;;4.87;3.97;;;;;;;;;;5096542;28;20483;-70
2021/08/06 01:40:38;;;;;;;5.53;4.30;;;;;;;;;;5096846;28;20546;-72
2021/08/06 01:43:13;;;;;;;5.60;5.00;;;;;;;;;;5097116;28;20507;-70
2021/08/06 01:45:42;;;;;;;5.63;3.67;;;;;;;;;;5096826;28;20452;-70
2021/08/06 01:48:13;;;;;;;8.93;4.50;;;;;;;;;;5096772;28;20459;-70
2021/08/06 01:50:42;;;;;;;6.30;5.27;;;;;;;;;;5097254;28;20470;-70
2021/08/06 01:53:12;;;;;;;5.70;4.23;;;;;;;;;;5096884;28;20767;-70
2021/08/06 01:55:43;;;;;;;5.27;4.07;;;;;;;;;;5097232;28;20802;-70
2021/08/06 01:58:13;;;;;;;6.00;4.40;;;;;;;;;;5096774;28;20510;-70
2021/08/06 02:00:41;;;;;;;6.60;4.20;;;;;;;;;;5097598;28;20847;-71
2021/08/06 02:03:09;;;;;;;8.87;4.57;;;;;;;;;;5096654;28;20463;-72
2021/08/06 02:05:37;;;;;;;5.87;4.23;;;;;;;;;;5096361;28;20482;-70
2021/08/06 02:08:05;;;;;;;5.37;4.10;;;;;;;;;;5096841;28;20495;-68
2021/08/06 02:10:33;;;;;;;6.07;4.57;;;;;;;;;;5096435;28;20501;-70
2021/08/06 02:13:01;;;;;;;5.20;4.53;;;;;;;;;;5096640;28;20521;-70
2021/08/06 02:15:31;;;;;;;6.20;4.00;;;;;;;;;;5096341;28;20891;-71
2021/08/06 02:17:59;;;;;;;4.90;4.20;;;;;;;;;;5096440;28;20490;-69
2021/08/06 02:20:27;;;;;;;5.87;4.50;;;;;;;;;;5096608;28;20544;-70
2021/08/06 02:22:56;;;;;;;6.07;5.00;;;;;;;;;;5096169;28;20787;-71
2021/08/06 02:25:27;;;;;;;6.80;4.00;;;;;;;;;;5096628;28;20461;-70
2021/08/06 02:27:56;;;;;;;5.60;5.00;;;;;;;;;;5096178;28;20447;-70
2021/08/06 02:30:23;;;;;;;5.13;4.53;;;;;;;;;;5096531;28;20460;-70
2021/08/06 02:32:53;;;;;;;4.60;3.93;;;;;;;;;;5096014;28;20452;-71
2021/08/06 02:35:21;;;;;;;6.50;5.00;;;;;;;;;;5088738;28;20487;-70
2021/08/06 02:37:50;;;;;;;5.17;4.60;;;;;;;;;;5096273;28;20475;-70
2021/08/06 02:40:17;;;;;;;6.93;4.50;;;;;;;;;;5096216;28;20768;-71
2021/08/06 02:42:47;;;;;;;6.00;5.40;;;;;;;;;;5096295;28;20452;-71
2021/08/06 02:45:15;;;;;;;5.57;4.30;;;;;;;;;;5096451;28;20452;-71
2021/08/06 02:47:43;;;;;;;7.80;5.20;;;;;;;;;;5095739;28;20452;-71
2021/08/06 02:50:13;;;;;;;6.10;4.60;;;;;;;;;;5095951;28;20482;-72
2021/08/06 02:52:41;;;;;;;6.53;4.80;;;;;;;;;;5095994;28;20491;-71
2021/08/06 02:55:12;;;;;;;7.47;5.77;;;;;;;;;;5096456;28;20455;-71
2021/08/06 02:57:40;;;;;;;5.93;4.70;;;;;;;;;;5096052;28;20518;-71
2021/08/06 03:00:08;;;;;;;5.47;4.90;;;;;;;;;;5099902;28;20462;-71
2021/08/06 03:02:36;;;;;;;7.60;5.40;;;;;;;;;;5099490;28;20496;-70
2021/08/06 03:05:04;;;;;;;7.20;5.70;;;;;;;;;;5099932;28;20512;-70
2021/08/06 03:07:33;;;;;;;6.07;5.43;;;;;;;;;;5099587;28;20492;-71
2021/08/06 03:10:01;;;;;;;7.40;5.57;;;;;;;;;;5099774;28;20455;-71
2021/08/06 03:12:29;;;;;;;6.40;5.03;;;;;;;;;;5099568;28;20502;-72
2021/08/06 03:14:57;;;;;;;6.30;4.90;;;;;;;;;;5099490;28;20516;-71
2021/08/06 03:17:26;;;;;;;7.57;6.17;;;;;;;;;;5099485;28;20487;-71
2021/08/06 03:19:53;;;;;;;6.70;5.80;;;;;;;;;;5098962;28;20860;-71
2021/08/06 03:22:21;;;;;;;6.67;5.97;;;;;;;;;;5099016;28;20459;-71
2021/08/06 03:24:51;;;;;;;8.90;5.80;;;;;;;;;;5099021;28;20460;-71
2021/08/06 03:27:18;;;;;;;7.07;5.70;;;;;;;;;;5099136;28;20462;-71
2021/08/06 03:29:46;;;;;;;6.67;5.97;;;;;;;;;;5098919;28;20496;-71
2021/08/06 03:32:14;;;;;;;11.20;6.30;;;;;;;;;;5098317;28;20462;-73
2021/08/06 03:34:42;;;;;;;10.20;6.90;;;;;;;;;;5098742;28;20478;-71
2021/08/06 03:37:09;;;;;;;8.77;7.10;;;;;;;;;;5080361;28;20986;-71
2021/08/06 03:39:38;;;;;;;8.20;6.77;;;;;;;;;;5078159;28;20510;-70
2021/08/06 03:42:07;;;;;;;7.90;5.90;;;;;;;;;;5078312;28;20877;-71
2021/08/06 03:44:35;;;;;;;8.37;6.70;;;;;;;;;;5078394;28;20483;-71
2021/08/06 03:47:03;;;;;;;8.00;6.67;;;;;;;;;;5078663;28;20782;-71
2021/08/06 03:49:31;;;;;;;8.43;6.53;;;;;;;;;;5078398;28;20735;-71
2021/08/06 03:51:59;;;;;;;11.43;6.23;;;;;;;;;;5078292;28;20490;-71
2021/08/06 03:54:26;;;;;;;9.60;7.30;;;;;;;;;;5078610;28;20448;-71
2021/08/06 03:56:54;;;;;;;10.90;6.93;;;;;;;;;;5078591;28;20922;-71
2021/08/06 03:59:23;;;;;;;8.70;6.77;;;;;;;;;;5078495;28;20518;-71
2021/08/06 04:01:51;;;;;;;10.10;7.67;;;;;;;;;;5078935;28;20456;-70
2021/08/06 04:04:19;;;;;;;8.70;6.87;;;;;;;;;;5077973;28;20476;-71
2021/08/06 04:06:46;;;;;;;9.23;7.10;;;;;;;;;;5078477;28;20456;-71
2021/08/06 04:09:15;;;;;;;10.70;6.80;;;;;;;;;;5077275;28;20440;-71
2021/08/06 04:11:42;;;;;;;8.30;7.07;;;;;;;;;;5076714;28;20452;-71
2021/08/06 04:14:10;;;;;;;9.00;6.90;;;;;;;;;;5077396;28;20487;-71
2021/08/06 04:16:40;;;;;;;9.23;6.00;;;;;;;;;;5077616;28;20729;-71
2021/08/06 04:19:07;;;;;;;7.23;5.60;;;;;;;;;;5077522;28;20519;-71
2021/08/06 04:21:35;;;;;;;6.57;5.50;;;;;;;;;;5077857;28;20868;-71
2021/08/06 04:24:03;;;;;;;7.93;7.07;;;;;;;;;;5077894;28;20460;-71
2021/08/06 04:26:31;;;;;;;9.90;7.03;;;;;;;;;;5077846;28;20517;-71
2021/08/06 04:28:59;;;;;;;8.50;7.03;;;;;;;;;;5078203;28;20513;-71
2021/08/06 04:31:27;;;;;;;8.40;6.80;;;;;;;;;;5077515;28;20869;-71
2021/08/06 04:33:56;;;;;;;7.93;6.60;;;;;;;;;;5078280;28;20453;-71
2021/08/06 04:36:23;;;;;;;7.53;6.07;;;;;;;;;;5077698;28;20558;-71
2021/08/06 04:38:51;;;;;;;9.13;5.63;;;;;;;;;;5076295;28;20946;-71
2021/08/06 04:41:19;;;;;;;7.83;6.20;;;;;;;;;;5069063;28;20456;-71
2021/08/06 04:43:47;;;;;;;6.70;5.90;;;;;;;;;;5076851;28;20510;-71
2021/08/06 04:46:15;;;;;;;8.10;5.90;;;;;;;;;;5076744;28;20556;-71
2021/08/06 04:48:43;;;;;;;7.87;6.70;;;;;;;;;;5076706;28;20517;-71
2021/08/06 04:51:12;;;;;;;8.27;6.60;;;;;;;;;;5076714;28;20497;-71
2021/08/06 04:53:40;;;;;;;8.00;6.30;;;;;;;;;;5076765;28;20525;-71
2021/08/06 04:56:09;;;;;;;7.33;6.40;;;;;;;;;;5077073;28;20476;-72
2021/08/06 04:58:37;;;;;;;8.83;6.80;;;;;;;;;;5076434;28;20488;-71
2021/08/06 05:01:05;;;;;;;11.30;7.00;;;;;;;;;;5076945;28;20498;-71
2021/08/06 05:03:33;;;;;;;9.70;6.30;;;;;;;;;;5077156;28;20737;-70
2021/08/06 05:06:01;;;;;;;8.50;6.97;;;;;;;;;;5076723;28;20444;-71
2021/08/06 05:08:30;;;;;;;8.77;6.77;;;;;;;;;;5077997;28;20463;-70
2021/08/06 05:10:58;;;;;;;12.10;5.33;;;;;;;;;;5076230;28;20448;-71
2021/08/06 05:13:26;;;;;;;6.00;4.70;;;;;;;;;;5075787;28;20476;-72
2021/08/06 05:15:54;;;;;;;6.30;5.10;;;;;;;;;;5077117;28;20467;-72
2021/08/06 05:18:22;;;;;;;7.30;6.13;;;;;;;;;;5076594;28;20492;-71
2021/08/06 05:20:51;;;;;;;9.30;5.90;;;;;;;;;;5075480;28;20449;-71
2021/08/06 05:23:19;;;;;;;7.93;6.53;;;;;;;;;;5076469;28;20456;-71
2021/08/06 05:25:48;;;;;;;6.70;5.73;;;;;;;;;;5071923;28;20857;-71
2021/08/06 05:28:16;;;;;;;6.60;5.10;;;;;;;;;;5071695;28;20460;-70
2021/08/06 05:30:44;;;;;;;6.03;5.00;;;;;;;;;;5076869;28;20490;-71
2021/08/06 05:33:11;;;;;;;6.83;4.80;;;;;;;;;;5075854;28;20449;-70
2021/08/06 05:35:40;;;;;;;6.70;4.57;;;;;;;;;;5074558;28;20481;-70
2021/08/06 05:38:08;;;;;;;5.47;4.60;;;;;;;;;;5076421;28;20480;-70
2021/08/06 05:40:35;;;;;;;6.00;4.10;;;;;;;;;;5075461;28;20498;-70
2021/08/06 05:43:04;;;;;;;6.73;4.17;;;;;;;;;;5075032;28;20448;-70
2021/08/06 05:45:32;;;;;;;4.90;3.70;;;;;;;;;;5076288;28;20509;-70
2021/08/06 05:48:00;;;;;;;4.60;3.67;;;;;;;;;;5076087;28;20479;-71
2021/08/06 05:50:29;;;;;;;4.43;3.97;;;;;;;;;;5076017;28;20522;-70
2021/08/06 05:52:57;;;;;;;6.80;3.97;;;;;;;;;;5075541;28;20510;-71
2021/08/06 05:55:25;;;;;;;5.20;3.77;;;;;;;;;;5075327;28;20502;-69
2021/08/06 05:57:53;;;;;;;5.33;4.10;;;;;;;;;;5074990;28;20448;-70
2021/08/06 06:00:25;;;;;;;4.23;3.73;;;;;;;;;;5075237;28;20452;-70
2021/08/06 06:02:53;;;;;;;5.30;4.10;;;;;;;;;;5067332;28;20741;-71
2021/08/06 06:05:22;;;;;;;4.30;3.67;;;;;;;;;;5074596;28;20589;-71
2021/08/06 06:07:50;;;;;;;5.20;4.00;;;;;;;;;;5074071;28;20452;-71
2021/08/06 06:10:20;;;;;;;6.03;4.13;;;;;;;;;;5066424;28;20542;-70
2021/08/06 06:12:48;;;;;;;4.30;3.37;;;;;;;;;;5076641;28;20480;-72
2021/08/06 06:15:18;;;;;;;4.10;3.53;;;;;;;;;;5074538;28;20461;-72
2021/08/06 06:17:48;;;;;;;4.13;3.47;;;;;;;;;;5075816;28;20452;-72
2021/08/06 06:20:16;;;;;;;4.03;3.40;;;;;;;;;;5076095;28;20456;-72
2021/08/06 06:22:45;;;;;;;5.30;3.80;;;;;;;;;;5074927;28;20460;-72
2021/08/06 06:25:13;;;;;;;5.73;3.27;;;;;;;;;;5074987;28;20469;-73
2021/08/06 06:27:56;;;;;;;4.27;3.20;;;;;;;;;;5074329;28;20457;-72
2021/08/06 06:30:26;;;;;;;7.83;3.87;;;;;;;;;;5071291;28;20456;-71
2021/08/06 06:32:56;;;;;;;4.87;4.30;;;;;;;;;;5074805;28;20448;-72
2021/08/06 06:35:24;;;;;;;4.63;3.50;;;;;;;;;;5078884;28;20525;-72
2021/08/06 06:37:53;;;;;;;4.13;3.20;;;;;;;;;;5078432;28;20456;-71
2021/08/06 06:40:21;;;;;;;3.70;3.13;;;;;;;;;;5078982;28;20460;-73
2021/08/06 06:42:49;;;;;;;4.27;3.43;;;;;;;;;;5078639;28;20452;-72
2021/08/06 06:45:18;;;;;;;7.00;3.80;;;;;;;;;;5079488;28;20452;-72
2021/08/06 06:47:48;;;;;;;3.50;3.20;;;;;;;;;;5079081;28;20452;-72
2021/08/06 06:50:18;;;;;;;3.87;3.07;;;;;;;;;;5078091;28;20475;-72
2021/08/06 06:52:48;;;;;;;3.47;2.80;;;;;;;;;;5078572;28;20464;-71
2021/08/06 06:55:20;;;;;;;5.23;3.50;;;;;;;;;;5078305;28;20490;-72
2021/08/06 06:57:50;;;;;;;4.37;3.27;;;;;;;;;;5059918;28;20437;-72
2021/08/06 07:00:19;;;;;;;5.17;4.10;;;;;;;;;;5058896;28;20508;-72
2021/08/06 07:02:47;;;;;;;3.83;3.30;;;;;;;;;;5077170;28;20441;-72
2021/08/06 07:05:15;;;;;;;5.53;3.53;;;;;;;;;;5080790;28;20959;-72
2021/08/06 07:07:45;;;;;;;3.57;2.87;;;;;;;;;;5078884;28;20496;-72
2021/08/06 07:10:15;;;;;;;3.93;2.70;;;;;;;;;;5078449;28;20741;-74
2021/08/06 07:12:44;;;;;;;3.63;2.70;;;;;;;;;;5079222;28;20448;-72
2021/08/06 07:15:13;;;;;;;3.10;2.40;;;;;;;;;;5077758;28;20460;-70
2021/08/06 07:17:41;;;;;;;5.30;3.10;;;;;;;;;;5079243;28;20531;-72
2021/08/06 07:20:10;;;;;;;3.57;2.90;;;;;;;;;;5079013;28;20487;-71
2021/08/06 07:22:39;;;;;;;3.57;3.00;;;;;;;;;;5077803;28;20455;-71
2021/08/06 07:25:10;;;;;;;3.00;2.53;;;;;;;;;;5078766;28;20490;-71
2021/08/06 07:27:38;;;;;;;5.40;3.17;;;;;;;;;;5079306;28;20453;-71
2021/08/06 07:30:07;;;;;;;3.00;2.67;;;;;;;;;;5080239;28;20448;-72
2021/08/06 07:32:46;;;;;;;4.43;3.17;;;;;;;;;;5090961;28;20464;-72
2021/08/06 07:35:18;;;;;;;5.40;2.90;;;;;;;;;;5079767;28;20496;-70
2021/08/06 07:37:50;;;;;;;4.40;3.77;;;;;;;;;;5077690;28;20448;-72
2021/08/06 07:40:20;;;;;;;3.83;3.23;;;;;;;;;;5069203;28;20491;-71
2021/08/06 07:42:48;;;;;;;4.10;3.40;;;;;;;;;;5076180;28;20551;-72
2021/08/06 07:45:16;;;;;;;4.60;3.53;;;;;;;;;;5076641;28;20773;-71
2021/08/06 07:47:44;;;;;;;4.07;3.17;;;;;;;;;;5076994;28;20973;-72
2021/08/06 07:50:15;;;;;;;6.67;3.63;;;;;;;;;;5077393;28;20451;-71
2021/08/06 07:52:43;;;;;;;3.60;3.30;;;;;;;;;;5083957;28;20470;-70
2021/08/06 07:55:15;;;;;;;4.87;3.37;;;;;;;;;;5076721;28;20445;-69
2021/08/06 07:57:45;;;;;;;3.40;3.00;;;;;;;;;;5077858;28;20459;-71
2021/08/06 08:00:13;;;;;;;3.20;2.80;;;;;;;;;;5078601;28;20548;-72
2021/08/06 08:02:43;;;;;;;3.20;2.70;;;;;;;;;;5076729;28;20464;-72
2021/08/06 08:05:20;;;;;;;4.13;2.60;;;;;;;;;;5087703;28;20555;-73
2021/08/06 08:07:49;;;;;;;3.63;2.50;;;;;;;;;;5094930;28;20561;-70
2021/08/06 08:10:20;;;;;;;3.57;2.57;;;;;;;;;;5096778;28;20813;-71
2021/08/06 08:12:50;;;;;;;4.43;3.00;;;;;;;;;;5097381;28;20460;-71
2021/08/06 08:15:20;;;;;;;3.37;3.00;;;;;;;;;;5096760;28;20728;-70
2021/08/06 08:17:48;;;;;;;3.80;2.90;;;;;;;;;;5090393;28;20453;-71
2021/08/06 08:20:16;;;;;;;3.57;3.07;;;;;;;;;;5077591;28;20535;-71
2021/08/06 08:22:44;;;;;;;7.07;2.97;;;;;;;;;;5076516;28;20554;-71
2021/08/06 08:25:13;;;;;;;4.20;3.70;;;;;;;;;;5077416;28;20481;-72
2021/08/06 08:27:41;;;;;;;4.23;2.93;;;;;;;;;;5076757;28;20468;-71
2021/08/06 08:30:12;;;;;;;3.67;3.27;;;;;;;;;;5078000;28;20444;-71
2021/08/06 08:32:40;;;;;;;4.67;3.70;;;;;;;;;;5076040;28;20457;-71
2021/08/06 08:35:12;;;;;;;5.40;3.80;;;;;;;;;;5075915;28;20568;-70
2021/08/06 08:37:51;;;;;;;5.87;3.70;;;;;;;;;;5076570;28;20452;-72
2021/08/06 08:40:20;;;;;;;4.50;3.60;;;;;;;;;;5074958;28;20484;-71
2021/08/06 08:42:51;;;;;;;3.67;3.10;;;;;;;;;;5077522;28;20461;-70
2021/08/06 08:45:21;;;;;;;5.10;3.50;;;;;;;;;;5068767;28;20453;-71
2021/08/06 08:47:50;;;;;;;3.53;3.20;;;;;;;;;;5069712;28;20456;-72
2021/08/06 08:50:19;;;;;;;3.60;3.20;;;;;;;;;;5078270;28;20484;-71
2021/08/06 08:52:48;;;;;;;4.50;4.10;;;;;;;;;;5064042;28;20461;-71
2021/08/06 08:55:34;;;;;;;5.83;3.53;;;;;;;;;;5080621;28;20876;-71
2021/08/06 08:58:05;;;;;;;5.03;3.80;;;;;;;;;;5077703;28;20460;-72
2021/08/06 09:03:40;;;;;;;5.53;4.00;;;;;;;;;;5074910;28;20455;-70
2021/08/06 09:06:29;;;;;;;4.53;4.13;;;;;;;;;;5083517;28;20470;-72
2021/08/06 09:09:14;;;;;;;4.30;3.90;;;;;;;;;;5080724;28;20475;-71
2021/08/06 09:11:44;;;;;;;4.43;3.93;;;;;;;;;;5076926;28;20444;-71
2021/08/06 09:14:20;;;;;;;4.13;3.77;;;;;;;;;;5077067;28;20448;-71
2021/08/06 09:17:09;;;;;;;4.30;3.90;;;;;;;;;;5076953;28;20480;-71
2021/08/06 09:19:38;;;;;;;4.70;4.00;;;;;;;;;;5076893;28;20485;-72
2021/08/06 09:22:12;;;;;;;4.53;4.10;;;;;;;;;;5075485;28;20919;-70
2021/08/06 09:24:58;;;;;;;4.27;3.43;;;;;;;;;;5076745;28;20456;-71
2021/08/06 09:27:28;;;;;;;4.67;4.00;;;;;;;;;;5076563;28;20807;-71
2021/08/06 09:29:58;;;;;;;4.87;4.37;;;;;;;;;;5075612;28;20531;-71
2021/08/06 09:32:45;;;;;;;3.80;3.40;;;;;;;;;;5075893;28;20540;-70
2021/08/06 09:35:15;;;;;;;4.00;3.60;;;;;;;;;;5074681;28;20468;-69
2021/08/06 09:37:49;;;;;;;4.10;3.70;;;;;;;;;;5056076;28;20442;-72
2021/08/06 09:40:21;;;;;;;4.97;4.47;;;;;;;;;;5092475;28;20491;-71
2021/08/06 09:42:53;;;;;;;5.53;4.30;;;;;;;;;;5078019;28;20452;-72
2021/08/06 09:45:25;;;;;;;5.60;4.40;;;;;;;;;;5077003;28;20548;-72
2021/08/06 09:48:10;;;;;;;4.80;4.40;;;;;;;;;;5078982;28;20461;-71
2021/08/06 09:50:43;;;;;;;4.50;4.10;;;;;;;;;;5089040;28;20492;-71
2021/08/06 09:53:11;;;;;;;4.90;4.03;;;;;;;;;;5082010;28;20534;-71
2021/08/06 09:55:55;;;;;;;4.87;4.47;;;;;;;;;;5074928;28;20868;-71
2021/08/06 09:58:24;;;;;;;6.30;5.70;;;;;;;;;;5076329;28;20999;-71
2021/08/06 10:01:02;;;;;;;5.37;4.43;;;;;;;;;;5083959;28;20874;-71
2021/08/06 10:03:32;;;;;;;5.87;4.87;;;;;;;;;;5074081;28;21126;-69
2021/08/06 10:06:14;;;;;;;6.80;4.90;;;;;;;;;;5077164;28;20569;-70
2021/08/06 10:08:43;;;;;;;5.00;4.60;;;;;;;;;;5077429;28;20460;-70
2021/08/06 10:11:11;;;;;;;5.70;5.10;;;;;;;;;;5079503;28;20445;-70
2021/08/06 10:13:40;;;;;;;6.60;6.00;;;;;;;;;;5079657;28;20452;-71
2021/08/06 10:16:08;;;;;;;5.80;5.20;;;;;;;;;;5080012;28;20977;-70
2021/08/06 10:18:36;;;;;;;6.90;5.43;;;;;;;;;;5083666;28;20440;-70
2021/08/06 10:21:04;;;;;;;6.30;4.40;;;;;;;;;;5077441;28;20943;-70
2021/08/06 10:23:35;;;;;;;9.17;6.37;;;;;;;;;;5080167;28;20700;-71
2021/08/06 10:26:04;;;;;;;6.47;5.13;;;;;;;;;;5079083;28;20733;-70
2021/08/06 10:28:36;;;;;;;5.93;5.40;;;;;;;;;;5079489;28;20845;-70
2021/08/06 10:31:20;;;;;;;10.10;7.80;;;;;;;;;;5084842;28;20483;-71
2021/08/06 10:34:04;;;;;;;6.00;5.40;;;;;;;;;;5078502;28;20551;-70
2021/08/06 10:36:42;;;;;;;6.30;5.60;;;;;;;;;;5079465;28;20464;-69
2021/08/06 10:39:29;;;;;;;7.60;6.50;;;;;;;;;;5078533;28;20487;-70
2021/08/06 10:42:01;;;;;;;6.90;5.77;;;;;;;;;;5079979;28;20464;-70
2021/08/06 10:44:49;;;;;;;8.60;6.70;;;;;;;;;;5080119;28;20491;-70
2021/08/06 10:47:17;;;;;;;11.73;7.70;;;;;;;;;;5078483;28;20482;-69
2021/08/06 10:50:06;;;;;;;10.60;6.87;;;;;;;;;;5077343;28;20512;-71
2021/08/06 10:52:34;;;;;;;8.70;7.20;;;;;;;;;;5079640;28;20490;-72
2021/08/06 10:55:18;;;;;;;9.93;8.40;;;;;;;;;;5077879;28;20510;-72
2021/08/06 10:57:56;;;;;;;7.70;6.90;;;;;;;;;;5078297;28;20771;-73
2021/08/06 11:00:38;;;;;;;10.03;6.90;;;;;;;;;;5069989;28;20472;-71
2021/08/06 11:03:06;;;;;;;8.87;7.97;;;;;;;;;;5078702;28;20550;-71
2021/08/06 11:05:36;;;;;;;10.27;8.47;;;;;;;;;;5079798;28;20574;-71
2021/08/06 11:08:29;;;;;;;8.17;7.37;;;;;;;;;;5077559;28;21051;-71
2021/08/06 11:10:58;;;;;;;12.43;6.37;;;;;;;;;;5068202;28;20459;-72
2021/08/06 11:13:47;;;;;;;7.73;6.97;;;;;;;;;;5077946;28;20468;-70
2021/08/06 11:16:17;;;;;;;11.37;10.17;;;;;;;;;;5079638;28;20959;-72
2021/08/06 11:19:06;;;;;;;7.67;6.50;;;;;;;;;;5078396;28;20506;-71
2021/08/06 11:21:40;;;;;;;9.73;8.17;;;;;;;;;;5078716;28;20819;-71
2021/08/06 11:24:12;;;;;;;7.40;6.40;;;;;;;;;;5073594;28;20541;-71
2021/08/06 11:26:48;;;;;;;6.70;6.00;;;;;;;;;;5077751;28;20514;-72
2021/08/06 11:29:20;;;;;;;8.10;7.27;;;;;;;;;;5077562;28;20468;-72
2021/08/06 11:32:01;;;;;;;8.90;8.07;;;;;;;;;;5074929;28;20453;-73
2021/08/06 11:34:29;;;;;;;10.83;8.23;;;;;;;;;;5077629;28;20452;-71
2021/08/06 11:37:01;;;;;;;7.40;6.70;;;;;;;;;;5078307;28;20495;-71
2021/08/06 11:39:30;;;;;;;13.77;6.70;;;;;;;;;;5073773;28;20525;-72
2021/08/06 11:41:58;;;;;;;9.37;7.20;;;;;;;;;;5076829;28;20464;-72
2021/08/06 11:44:31;;;;;;;6.40;5.33;;;;;;;;;;5078141;28;20503;-72
2021/08/06 11:47:08;;;;;;;7.03;6.37;;;;;;;;;;5076467;28;20448;-70
2021/08/06 11:49:35;;;;;;;7.63;6.83;;;;;;;;;;5072031;28;20531;-71
2021/08/06 11:52:08;;;;;;;8.27;7.50;;;;;;;;;;5077491;28;20453;-71
2021/08/06 11:54:36;;;;;;;10.80;9.80;;;;;;;;;;5076176;28;20574;-71
2021/08/06 11:57:04;;;;;;;7.67;6.77;;;;;;;;;;5076222;28;20536;-72
2021/08/06 11:59:34;;;;;;;9.40;6.07;;;;;;;;;;5074961;28;20646;-73
2021/08/06 12:02:20;;;;;;;7.10;6.40;;;;;;;;;;5079478;28;20459;-71
2021/08/06 12:04:49;;;;;;;8.30;7.50;;;;;;;;;;5077566;28;20437;-71
2021/08/06 12:07:17;;;;;;;6.97;5.97;;;;;;;;;;5075138;28;20453;-71
2021/08/06 12:09:51;;;;;;;9.57;8.47;;;;;;;;;;5077128;28;20445;-72
2021/08/06 12:12:30;;;;;;;10.53;9.53;;;;;;;;;;5076626;28;20448;-71
2021/08/06 12:14:58;;;;;;;17.10;14.57;;;;;;;;;;5075168;28;20514;-71
2021/08/06 12:17:30;;;;;;;10.97;7.37;;;;;;;;;;5076387;28;20476;-70
2021/08/06 12:20:02;;;;;;;8.23;7.43;;;;;;;;;;5074932;28;20850;-71
2021/08/06 12:22:37;;;;;;;10.70;9.70;;;;;;;;;;5076067;28;20456;-71
2021/08/06 12:25:14;;;;;;;16.37;15.00;;;;;;;;;;5065118;28;20464;-71
2021/08/06 12:27:51;;;;;;;15.40;14.30;;;;;;;;;;5075390;28;20459;-71
2021/08/06 12:30:27;;;;;;;7.40;6.67;;;;;;;;;;5077486;28;20459;-70
2021/08/06 12:33:02;;;;;;;7.30;6.60;;;;;;;;;;5075173;28;20525;-70
2021/08/06 12:35:32;;;;;;;6.50;5.90;;;;;;;;;;5075097;28;20460;-70
2021/08/06 12:38:02;;;;;;;9.20;5.97;;;;;;;;;;5076171;28;20862;-70
2021/08/06 12:43:43;;;;;;;6.73;5.50;;;;;;;;;;5077954;28;20844;-70
2021/08/06 12:46:16;;;;;;;5.80;5.20;;;;;;;;;;5073822;28;20452;-71
2021/08/06 12:49:15;;;;;;;8.90;6.63;;;;;;;;;;5077699;28;20816;-71
2021/08/06 12:51:58;;;;;;;7.17;5.70;;;;;;;;;;5048591;28;20898;-72
2021/08/06 12:54:42;;;;;;;7.50;5.03;;;;;;;;;;5085888;27;20365;-70
2021/08/06 12:57:11;;;;;;;5.27;4.70;;;;;;;;;;5088329;28;20522;-71
2021/08/06 12:59:39;;;;;;;5.67;5.17;;;;;;;;;;5091803;28;20755;-71
2021/08/06 13:02:19;;;;;;;5.13;4.63;;;;;;;;;;5081086;28;20530;-71
2021/08/06 13:04:46;;;;;;;8.37;5.20;;;;;;;;;;5093012;28;20447;-70
2021/08/06 13:07:33;;;;;;;5.43;4.93;;;;;;;;;;5089172;28;20911;-70
2021/08/06 13:10:01;;;;;;;6.57;4.93;;;;;;;;;;5089374;28;20488;-71
2021/08/06 13:12:31;;;;;;;6.33;4.90;;;;;;;;;;5089064;28;20824;-71
2021/08/06 13:14:58;;;;;;;6.73;6.03;;;;;;;;;;5082574;28;20467;-71
2021/08/06 13:17:25;;;;;;;11.03;7.97;;;;;;;;;;5083871;28;20884;-71
2021/08/06 13:19:54;;;;;;;5.97;5.37;;;;;;;;;;5090252;28;20454;-72
2021/08/06 13:22:25;;;;;;;5.00;4.50;;;;;;;;;;5089665;28;20597;-71
2021/08/06 13:24:53;;;;;;;5.87;5.27;;;;;;;;;;5092575;28;20440;-71
2021/08/06 13:27:21;;;;;;;6.73;6.13;;;;;;;;;;5092301;28;20527;-71
2021/08/06 13:29:50;;;;;;;7.73;6.20;;;;;;;;;;5090906;28;20440;-72
2021/08/06 13:32:25;;;;;;;5.47;4.97;;;;;;;;;;5095218;28;20448;-71
2021/08/06 13:40:58;;;;;;;6.50;5.90;;;;;;;;;;5073817;28;20445;-71
2021/08/06 13:43:33;;;;;;;6.93;5.90;;;;;;;;;;5073518;28;20559;-70
2021/08/06 13:46:00;;;;;;;5.67;5.07;;;;;;;;;;5082535;28;20518;-70
2021/08/06 13:48:39;;;;;;;8.60;7.77;;;;;;;;;;5095372;28;20467;-70
2021/08/06 13:51:09;;;;;;;8.73;7.30;;;;;;;;;;5074570;28;20436;-70
2021/08/06 13:54:10;;;;;;;7.60;6.80;;;;;;;;;;5073364;28;20496;-70
2021/08/06 13:56:50;;;;;;;7.07;6.23;;;;;;;;;;5075003;28;20456;-70
2021/08/06 13:59:24;;;;;;;5.27;4.77;;;;;;;;;;5074290;28;20527;-70
2021/08/06 14:01:58;;;;;;;9.40;6.50;;;;;;;;;;5085388;28;20504;-71
2021/08/06 14:06:12;;;;;;;6.30;5.63;;;;;;;;;;5116234;27;20574;-72
2021/08/06 14:09:07;;;;;;;8.27;6.73;;;;;;;;;;5116058;28;20447;-69
2021/08/06 14:11:37;;;;;;;6.63;5.93;;;;;;;;;;5112258;28;20451;-70
2021/08/06 14:14:08;;;;;;;6.40;5.57;;;;;;;;;;5116238;28;20520;-69
2021/08/06 14:16:39;;;;;;;7.37;6.20;;;;;;;;;;5114663;28;20521;-69
2021/08/06 14:19:07;;;;;;;10.73;7.83;;;;;;;;;;5113448;28;20435;-70
2021/08/06 14:21:41;;;;;;;8.10;6.40;;;;;;;;;;5112541;28;20455;-71
2021/08/06 14:24:13;;;;;;;7.33;6.60;;;;;;;;;;5113554;28;20509;-69
2021/08/06 14:26:54;;;;;;;8.43;5.60;;;;;;;;;;5117285;28;20462;-71
2021/08/06 14:29:24;;;;;;;7.93;5.77;;;;;;;;;;5109187;28;20470;-71
2021/08/06 14:31:52;;;;;;;7.40;6.10;;;;;;;;;;5109665;28;20495;-70
2021/08/06 14:34:20;;;;;;;9.17;5.60;;;;;;;;;;5112200;28;20454;-71
2021/08/06 14:36:49;;;;;;;6.07;5.47;;;;;;;;;;5112376;28;20454;-70
2021/08/06 14:39:20;;;;;;;7.07;5.23;;;;;;;;;;5111465;28;21134;-71
2021/08/06 14:41:51;;;;;;;6.57;5.97;;;;;;;;;;5111712;28;20459;-69
2021/08/06 14:44:24;;;;;;;9.30;6.80;;;;;;;;;;5110979;28;20487;-70
2021/08/06 14:46:52;;;;;;;6.53;5.93;;;;;;;;;;5111968;28;20458;-70
2021/08/06 14:49:20;;;;;;;9.90;5.80;;;;;;;;;;5112845;28;20451;-70
2021/08/06 14:51:53;;;;;;;12.20;10.40;;;;;;;;;;5113618;28;20947;-69
2021/08/06 14:54:22;;;;;;;8.30;6.40;;;;;;;;;;5111457;28;20454;-69
2021/08/06 15:03:39;;;;;;;;;;;;;;;;;;;;;
2021/08/06 15:06:44;;;;;;;;;;;;;;;;;;;;;
2021/08/06 15:09:43;;;;;;;6.70;5.83;;;;;;;;;;5089162;28;20455;-69
2021/08/06 15:12:49;;;;;;;6.63;5.17;;;;;;;;;;5113760;28;20446;-70
2021/08/06 15:15:17;;;;;;;4.97;4.30;;;;;;;;;;5092197;28;20550;-69
2021/08/06 15:18:16;;;;;;;;;;;;;;;;;;;;;
2021/08/06 15:21:04;;;;;;;8.57;4.90;;;;;;;;;;5100695;28;20861;-71
2021/08/06 15:32:57;;;;;;;6.50;5.07;;;;;;;;;;5095917;28;20863;-70
2021/08/06 15:38:57;;;;;;;7.83;6.83;;;;;;;;;;5098211;28;20432;-71
2021/08/06 15:44:57;;;;;;;6.00;4.87;;;;;;;;;;5095819;28;20540;-70
2021/08/06 15:53:37;;;;;;;4.90;3.80;;;;;;;;;;5069879;28;20455;-70